createdAt,value
2019-04-26T00:00:00.822Z,14.32
2019-04-26T00:01:00.860Z,14.33
2019-04-26T00:02:53.851Z,14.40
2019-04-26T00:03:53.907Z,14.33
2019-04-26T00:05:46.921Z,14.30
2019-04-26T00:06:46.954Z,14.28
2019-04-26T00:08:39.948Z,14.33
2019-04-26T00:09:40.006Z,14.30
2019-04-26T00:11:32.998Z,14.29
2019-04-26T00:12:33.049Z,14.26
2019-04-26T00:14:26.091Z,14.26
2019-04-26T00:15:26.111Z,14.22
2019-04-26T00:17:19.080Z,14.36
2019-04-26T00:18:19.142Z,14.33
2019-04-26T00:20:12.978Z,14.40
2019-04-26T00:21:12.184Z,14.30
2019-04-26T00:23:05.196Z,14.36
2019-04-26T00:24:05.230Z,14.33
2019-04-26T00:25:58.232Z,14.30
2019-04-26T00:26:58.273Z,14.33
2019-04-26T00:28:51.262Z,14.26
2019-04-26T00:29:51.324Z,14.12
2019-04-26T00:31:44.323Z,14.00
2019-04-26T00:32:44.367Z,13.86
2019-04-26T00:34:37.366Z,13.65
2019-04-26T00:35:47.325Z,13.54
2019-04-26T00:37:30.424Z,13.62
2019-04-26T00:38:30.465Z,13.63
2019-04-26T00:40:23.477Z,13.81
2019-04-26T00:41:23.511Z,13.78
2019-04-26T00:43:16.498Z,13.93
2019-04-26T00:44:16.626Z,14.03
2019-04-26T00:46:09.561Z,14.05
2019-04-26T00:47:09.612Z,14.00
2019-04-26T00:49:02.630Z,13.99
2019-04-26T00:50:02.657Z,14.08
2019-04-26T00:51:55.656Z,14.08
2019-04-26T00:52:55.754Z,14.07
2019-04-26T00:54:48.701Z,14.07
2019-04-26T00:55:48.748Z,14.05
2019-04-26T00:57:41.746Z,14.05
2019-04-26T00:58:41.785Z,14.05
2019-04-26T01:00:34.771Z,14.07
2019-04-26T01:01:34.828Z,14.08
2019-04-26T01:03:27.836Z,14.04
2019-04-26T01:04:27.875Z,13.96
2019-04-26T01:06:20.946Z,13.97
2019-04-26T01:07:21.158Z,13.95
2019-04-26T01:09:15.906Z,13.92
2019-04-26T01:10:13.998Z,13.85
2019-04-26T01:12:06.958Z,13.89
2019-04-26T01:13:07.018Z,13.90
2019-04-26T01:15:00.026Z,13.86
2019-04-26T01:16:00.059Z,13.87
2019-04-26T01:17:53.043Z,13.89
2019-04-26T01:18:53.103Z,13.86
2019-04-26T01:20:46.108Z,13.87
2019-04-26T01:21:46.144Z,13.81
2019-04-26T01:23:39.130Z,13.87
2019-04-26T01:24:39.191Z,13.72
2019-04-26T01:26:32.197Z,13.72
2019-04-26T01:27:32.247Z,13.81
2019-04-26T01:29:25.969Z,13.71
2019-04-26T01:30:25.863Z,13.72
2019-04-26T01:32:19.231Z,13.85
2019-04-26T01:33:18.743Z,13.75
2019-04-26T01:35:11.344Z,13.87
2019-04-26T01:36:13.201Z,13.86
2019-04-26T01:38:04.368Z,13.71
2019-04-26T01:39:04.427Z,13.70
2019-04-26T01:40:57.429Z,13.68
2019-04-26T01:41:57.470Z,13.67
2019-04-26T01:43:50.462Z,13.72
2019-04-26T01:44:50.512Z,13.68
2019-04-26T01:46:43.530Z,13.70
2019-04-26T01:47:43.580Z,13.63
2019-04-26T01:49:36.592Z,13.59
2019-04-26T01:50:36.629Z,13.62
2019-04-26T01:52:29.764Z,13.67
2019-04-26T01:53:29.670Z,13.59
2019-04-26T01:55:23.000Z,13.67
2019-04-26T01:56:23.481Z,13.67
2019-04-26T01:58:15.694Z,13.62
2019-04-26T01:59:15.753Z,13.67
2019-04-26T02:01:08.780Z,13.65
2019-04-26T02:02:09.030Z,13.71
2019-04-26T02:04:01.820Z,13.60
2019-04-26T02:05:01.857Z,13.60
2019-04-26T02:06:54.866Z,13.62
2019-04-26T02:07:54.904Z,13.63
2019-04-26T02:09:48.009Z,13.62
2019-04-26T02:10:47.950Z,13.53
2019-04-26T02:12:40.941Z,13.62
2019-04-26T02:13:40.989Z,13.56
2019-04-26T02:15:34.013Z,13.53
2019-04-26T02:16:34.053Z,13.59
2019-04-26T02:18:27.349Z,13.65
2019-04-26T02:19:27.499Z,13.60
2019-04-26T02:21:20.112Z,13.68
2019-04-26T02:22:20.147Z,13.67
2019-04-26T02:24:13.131Z,13.60
2019-04-26T02:25:13.192Z,13.67
2019-04-26T02:27:06.255Z,13.60
2019-04-26T02:28:06.262Z,13.63
2019-04-26T02:29:59.239Z,13.63
2019-04-26T02:30:59.295Z,13.54
2019-04-26T02:32:52.296Z,13.54
2019-04-26T02:33:52.337Z,13.63
2019-04-26T02:35:45.859Z,13.63
2019-04-26T02:36:56.942Z,13.62
2019-04-26T02:38:38.901Z,13.57
2019-04-26T02:39:38.944Z,13.63
2019-04-26T02:41:33.491Z,13.65
2019-04-26T02:42:32.940Z,13.62
2019-04-26T02:44:26.659Z,13.67
2019-04-26T02:45:28.300Z,13.57
2019-04-26T02:47:18.027Z,13.57
2019-04-26T02:48:18.067Z,13.54
2019-04-26T02:50:11.055Z,13.57
2019-04-26T02:51:11.112Z,13.52
2019-04-26T02:53:04.113Z,13.62
2019-04-26T02:54:04.170Z,13.53
2019-04-26T02:55:57.144Z,13.63
2019-04-26T02:56:57.201Z,13.63
2019-04-26T02:58:50.201Z,13.60
2019-04-26T02:59:50.243Z,13.63
2019-04-26T03:01:43.257Z,13.68
2019-04-26T03:02:43.285Z,13.67
2019-04-26T03:04:37.680Z,13.62
2019-04-26T03:05:37.650Z,13.67
2019-04-26T03:07:31.480Z,13.57
2019-04-26T03:08:29.842Z,13.53
2019-04-26T03:10:22.362Z,13.59
2019-04-26T03:11:22.421Z,13.53
2019-04-26T03:13:15.426Z,13.50
2019-04-26T03:14:15.463Z,13.38
2019-04-26T03:16:08.466Z,13.39
2019-04-26T03:17:08.517Z,13.59
2019-04-26T03:19:01.520Z,13.54
2019-04-26T03:20:01.552Z,13.53
2019-04-26T03:21:54.544Z,13.50
2019-04-26T03:22:54.595Z,13.53
2019-04-26T03:24:48.781Z,13.50
2019-04-26T03:25:47.640Z,13.47
2019-04-26T03:27:43.021Z,13.52
2019-04-26T03:28:43.479Z,13.46
2019-04-26T03:30:39.140Z,13.50
2019-04-26T03:31:38.973Z,13.44
2019-04-26T03:33:26.876Z,13.42
2019-04-26T03:34:26.774Z,13.54
2019-04-26T03:36:19.788Z,13.41
2019-04-26T03:37:21.521Z,13.42
2019-04-26T03:39:12.806Z,13.38
2019-04-26T03:40:12.881Z,13.31
2019-04-26T03:42:05.882Z,13.27
2019-04-26T03:43:05.914Z,13.35
2019-04-26T03:44:58.897Z,13.25
2019-04-26T03:45:58.964Z,13.20
2019-04-26T03:47:51.972Z,13.19
2019-04-26T03:48:52.004Z,13.23
2019-04-26T03:50:45.089Z,13.35
2019-04-26T03:51:45.063Z,13.23
2019-04-26T03:53:39.729Z,13.27
2019-04-26T03:54:39.819Z,13.27
2019-04-26T03:56:31.085Z,13.41
2019-04-26T03:57:31.133Z,13.33
2019-04-26T03:59:24.141Z,13.30
2019-04-26T04:00:24.180Z,13.27
2019-04-26T04:02:17.165Z,13.23
2019-04-26T04:03:17.224Z,13.23
2019-04-26T04:05:10.239Z,13.22
2019-04-26T04:06:10.266Z,13.13
2019-04-26T04:08:03.250Z,13.12
2019-04-26T04:09:03.310Z,13.18
2019-04-26T04:10:56.323Z,13.16
2019-04-26T04:12:10.022Z,13.12
2019-04-26T04:13:51.419Z,13.15
2019-04-26T04:14:49.409Z,13.22
2019-04-26T04:16:43.602Z,13.16
2019-04-26T04:17:45.407Z,13.13
2019-04-26T04:19:35.421Z,13.15
2019-04-26T04:20:35.478Z,13.19
2019-04-26T04:22:28.490Z,13.30
2019-04-26T04:23:28.538Z,13.22
2019-04-26T04:25:21.509Z,13.23
2019-04-26T04:26:21.569Z,13.18
2019-04-26T04:28:14.581Z,13.19
2019-04-26T04:29:14.614Z,13.20
2019-04-26T04:31:07.617Z,13.22
2019-04-26T04:32:07.677Z,13.25
2019-04-26T04:34:00.687Z,13.15
2019-04-26T04:35:00.719Z,13.20
2019-04-26T04:36:53.963Z,13.22
2019-04-26T04:38:08.034Z,13.19
2019-04-26T04:39:48.516Z,13.16
2019-04-26T04:40:47.203Z,13.11
2019-04-26T04:42:41.253Z,13.08
2019-04-26T04:43:41.868Z,13.11
2019-04-26T04:45:32.889Z,13.16
2019-04-26T04:46:32.899Z,13.12
2019-04-26T04:48:25.923Z,13.13
2019-04-26T04:49:25.947Z,13.22
2019-04-26T04:51:18.958Z,13.13
2019-04-26T04:52:18.990Z,13.15
2019-04-26T04:54:11.970Z,13.13
2019-04-26T04:55:12.030Z,13.12
2019-04-26T04:57:05.046Z,13.19
2019-04-26T04:58:05.094Z,13.23
2019-04-26T04:59:58.571Z,13.19
2019-04-26T05:00:58.623Z,13.22
2019-04-26T05:02:51.703Z,13.19
2019-04-26T05:03:51.665Z,13.09
2019-04-26T05:05:44.949Z,13.09
2019-04-26T05:06:44.995Z,13.13
2019-04-26T05:08:37.724Z,13.12
2019-04-26T05:09:37.757Z,13.18
2019-04-26T05:11:30.736Z,13.20
2019-04-26T05:12:30.794Z,13.18
2019-04-26T05:14:23.804Z,13.15
2019-04-26T05:15:23.835Z,13.25
2019-04-26T05:17:16.821Z,13.20
2019-04-26T05:18:16.890Z,13.27
2019-04-26T05:20:09.891Z,13.25
2019-04-26T05:21:09.922Z,13.20
2019-04-26T05:23:02.925Z,13.23
2019-04-26T05:24:02.996Z,13.16
2019-04-26T05:25:55.998Z,13.18
2019-04-26T05:26:56.028Z,13.22
2019-04-26T05:28:49.575Z,13.31
2019-04-26T05:29:49.917Z,13.28
2019-04-26T05:31:42.084Z,13.27
2019-04-26T05:32:42.125Z,13.15
2019-04-26T05:34:35.124Z,13.16
2019-04-26T05:35:35.188Z,13.12
2019-04-26T05:37:28.201Z,13.16
2019-04-26T05:38:28.238Z,13.25
2019-04-26T05:40:21.220Z,13.19
2019-04-26T05:41:21.276Z,13.19
2019-04-26T05:43:14.290Z,13.27
2019-04-26T05:44:14.323Z,13.28
2019-04-26T05:46:07.318Z,13.28
2019-04-26T05:47:07.379Z,13.18
2019-04-26T05:49:00.408Z,13.13
2019-04-26T05:50:00.439Z,13.25
2019-04-26T05:51:53.616Z,13.09
2019-04-26T05:52:53.482Z,13.18
2019-04-26T05:54:46.521Z,13.08
2019-04-26T05:55:46.518Z,13.13
2019-04-26T05:57:39.578Z,13.18
2019-04-26T05:58:39.573Z,13.12
2019-04-26T06:00:32.583Z,13.15
2019-04-26T06:01:32.613Z,13.08
2019-04-26T06:03:25.607Z,13.05
2019-04-26T06:04:25.667Z,13.13
2019-04-26T06:06:18.681Z,13.08
2019-04-26T06:07:18.714Z,13.01
2019-04-26T06:09:11.696Z,12.98
2019-04-26T06:10:11.754Z,12.95
2019-04-26T06:12:04.769Z,12.97
2019-04-26T06:13:04.791Z,12.94
2019-04-26T06:14:58.849Z,13.03
2019-04-26T06:15:58.047Z,12.94
2019-04-26T06:17:51.722Z,12.86
2019-04-26T06:18:51.791Z,12.87
2019-04-26T06:20:43.889Z,12.87
2019-04-26T06:21:43.952Z,12.93
2019-04-26T06:23:36.960Z,12.86
2019-04-26T06:24:37.002Z,12.95
2019-04-26T06:26:30.014Z,12.91
2019-04-26T06:27:30.038Z,12.95
2019-04-26T06:29:23.025Z,12.87
2019-04-26T06:30:23.085Z,12.95
2019-04-26T06:32:16.162Z,12.87
2019-04-26T06:33:16.142Z,12.83
2019-04-26T06:35:09.127Z,12.91
2019-04-26T06:36:09.218Z,12.87
2019-04-26T06:38:02.200Z,12.90
2019-04-26T06:39:02.232Z,12.94
2019-04-26T06:40:55.911Z,12.97
2019-04-26T06:41:56.055Z,12.98
2019-04-26T06:43:48.277Z,12.98
2019-04-26T06:44:48.317Z,13.01
2019-04-26T06:46:41.302Z,13.01
2019-04-26T06:47:41.361Z,12.98
2019-04-26T06:49:34.375Z,12.94
2019-04-26T06:50:34.403Z,12.95
2019-04-26T06:52:27.381Z,12.97
2019-04-26T06:53:27.472Z,13.08
2019-04-26T06:55:20.466Z,13.03
2019-04-26T06:56:20.510Z,13.00
2019-04-26T06:58:13.474Z,13.08
2019-04-26T06:59:13.559Z,13.15
2019-04-26T07:01:06.549Z,13.18
2019-04-26T07:02:06.586Z,13.23
2019-04-26T07:03:59.722Z,13.42
2019-04-26T07:05:00.662Z,13.47
2019-04-26T07:06:52.657Z,13.42
2019-04-26T07:07:52.680Z,13.54
2019-04-26T07:09:45.671Z,13.62
2019-04-26T07:10:45.760Z,13.49
2019-04-26T07:12:38.731Z,13.41
2019-04-26T07:13:38.787Z,13.46
2019-04-26T07:15:31.820Z,13.50
2019-04-26T07:16:31.812Z,13.44
2019-04-26T07:18:24.791Z,13.38
2019-04-26T07:19:24.850Z,13.27
2019-04-26T07:21:17.862Z,13.30
2019-04-26T07:22:17.892Z,13.35
2019-04-26T07:24:11.218Z,13.49
2019-04-26T07:25:11.083Z,13.52
2019-04-26T07:27:04.990Z,13.44
2019-04-26T07:28:08.107Z,13.41
2019-04-26T07:29:56.994Z,13.49
2019-04-26T07:30:57.015Z,13.54
2019-04-26T07:32:50.030Z,13.56
2019-04-26T07:33:50.065Z,13.59
2019-04-26T07:35:43.053Z,13.63
2019-04-26T07:36:43.111Z,13.70
2019-04-26T07:38:36.114Z,13.62
2019-04-26T07:39:36.150Z,13.59
2019-04-26T07:41:29.142Z,13.63
2019-04-26T07:42:29.195Z,13.56
2019-04-26T07:44:22.186Z,13.62
2019-04-26T07:45:22.233Z,13.60
2019-04-26T07:47:15.436Z,13.65
2019-04-26T07:48:15.274Z,13.72
2019-04-26T07:50:09.385Z,13.57
2019-04-26T07:51:09.420Z,13.67
2019-04-26T07:53:03.253Z,13.72
2019-04-26T07:54:02.448Z,13.78
2019-04-26T07:55:54.352Z,13.81
2019-04-26T07:56:54.413Z,13.78
2019-04-26T07:58:47.428Z,13.83
2019-04-26T07:59:47.459Z,13.83
2019-04-26T08:01:40.440Z,13.72
2019-04-26T08:02:40.501Z,13.74
2019-04-26T08:04:33.534Z,13.79
2019-04-26T08:05:33.541Z,13.79
2019-04-26T08:07:29.562Z,13.79
2019-04-26T08:08:26.595Z,13.68
2019-04-26T08:10:19.609Z,13.74
2019-04-26T08:11:19.640Z,13.85
2019-04-26T08:13:13.104Z,13.92
2019-04-26T08:14:12.688Z,13.75
2019-04-26T08:16:06.740Z,13.86
2019-04-26T08:17:06.582Z,13.85
2019-04-26T08:18:58.716Z,13.83
2019-04-26T08:19:58.877Z,13.83
2019-04-26T08:21:51.788Z,13.87
2019-04-26T08:22:52.294Z,13.77
2019-04-26T08:24:44.812Z,13.63
2019-04-26T08:25:45.062Z,13.71
2019-04-26T08:27:37.878Z,13.78
2019-04-26T08:28:37.905Z,13.79
2019-04-26T08:30:30.890Z,13.92
2019-04-26T08:31:30.950Z,13.95
2019-04-26T08:33:25.490Z,13.87
2019-04-26T08:34:28.860Z,13.67
2019-04-26T08:36:18.524Z,13.62
2019-04-26T08:37:19.283Z,13.75
2019-04-26T08:39:11.598Z,13.71
2019-04-26T08:40:16.303Z,13.65
2019-04-26T08:42:04.605Z,13.77
2019-04-26T08:43:04.670Z,13.93
2019-04-26T08:44:57.676Z,13.97
2019-04-26T08:46:03.139Z,13.92
2019-04-26T08:47:53.480Z,14.04
2019-04-26T08:48:50.752Z,13.93
2019-04-26T08:50:45.873Z,13.90
2019-04-26T08:51:43.794Z,13.93
2019-04-26T08:53:36.776Z,13.93
2019-04-26T08:54:36.853Z,13.96
2019-04-26T08:56:29.867Z,13.78
2019-04-26T08:57:29.901Z,13.83
2019-04-26T08:59:22.917Z,13.87
2019-04-26T09:00:22.948Z,13.92
2019-04-26T09:02:15.944Z,14.00
2019-04-26T09:03:15.990Z,14.11
2019-04-26T09:05:08.995Z,14.32
2019-04-26T09:06:09.042Z,14.41
2019-04-26T09:08:03.926Z,14.40
2019-04-26T09:09:02.085Z,14.47
2019-04-26T09:10:55.079Z,14.77
2019-04-26T09:11:59.715Z,14.97
2019-04-26T09:13:49.966Z,15.03
2019-04-26T09:14:48.185Z,15.11
2019-04-26T09:16:50.158Z,15.24
2019-04-26T09:17:41.231Z,15.46
2019-04-26T09:19:34.235Z,15.29
2019-04-26T09:20:34.275Z,15.37
2019-04-26T09:22:27.735Z,15.35
2019-04-26T09:23:39.348Z,15.39
2019-04-26T09:25:22.607Z,15.07
2019-04-26T09:26:20.409Z,15.04
2019-04-26T09:28:13.397Z,15.25
2019-04-26T09:29:13.433Z,15.29
2019-04-26T09:31:06.420Z,15.40
2019-04-26T09:32:06.475Z,15.57
2019-04-26T09:33:59.483Z,15.59
2019-04-26T09:34:59.520Z,15.46
2019-04-26T09:36:52.530Z,15.65
2019-04-26T09:37:52.570Z,15.58
2019-04-26T09:39:45.572Z,15.55
2019-04-26T09:40:45.634Z,15.47
2019-04-26T09:42:39.688Z,15.43
2019-04-26T09:43:38.685Z,15.54
2019-04-26T09:45:31.671Z,15.80
2019-04-26T09:46:31.728Z,16.05
2019-04-26T09:48:24.748Z,16.13
2019-04-26T09:49:24.778Z,16.21
2019-04-26T09:51:17.765Z,16.08
2019-04-26T09:52:17.826Z,15.97
2019-04-26T09:54:10.841Z,15.73
2019-04-26T09:55:10.882Z,15.67
2019-04-26T09:57:03.891Z,15.62
2019-04-26T09:58:03.931Z,15.55
2019-04-26T09:59:56.955Z,15.28
2019-04-26T10:00:56.984Z,15.27
2019-04-26T10:02:49.971Z,15.19
2019-04-26T10:03:50.030Z,15.22
2019-04-26T10:05:43.029Z,15.29
2019-04-26T10:06:43.077Z,15.43
2019-04-26T10:08:36.063Z,15.59
2019-04-26T10:09:36.122Z,15.67
2019-04-26T10:11:29.655Z,15.91
2019-04-26T10:12:29.695Z,15.97
2019-04-26T10:14:22.680Z,16.31
2019-04-26T10:15:26.618Z,16.51
2019-04-26T10:17:17.407Z,16.75
2019-04-26T10:18:15.790Z,16.68
2019-04-26T10:20:08.784Z,16.23
2019-04-26T10:21:08.844Z,16.17
2019-04-26T10:23:01.866Z,16.12
2019-04-26T10:24:01.898Z,15.98
2019-04-26T10:25:54.906Z,16.02
2019-04-26T10:26:55.490Z,16.10
2019-04-26T10:28:50.691Z,16.31
2019-04-26T10:29:48.014Z,16.39
2019-04-26T10:31:41.003Z,16.43
2019-04-26T10:32:41.064Z,16.49
2019-04-26T10:34:34.073Z,16.64
2019-04-26T10:35:34.113Z,16.65
2019-04-26T10:37:38.762Z,16.69
2019-04-26T10:38:27.160Z,16.57
2019-04-26T10:40:20.150Z,16.20
2019-04-26T10:41:20.210Z,16.28
2019-04-26T10:43:13.225Z,16.42
2019-04-26T10:44:13.259Z,16.53
2019-04-26T10:46:06.245Z,16.68
2019-04-26T10:47:06.306Z,16.41
2019-04-26T10:49:08.591Z,16.21
2019-04-26T10:49:59.355Z,16.17
2019-04-26T10:51:52.366Z,16.13
2019-04-26T10:52:54.314Z,16.01
2019-04-26T10:54:46.119Z,16.04
2019-04-26T10:55:46.535Z,16.01
2019-04-26T10:57:38.475Z,15.83
2019-04-26T10:58:38.504Z,15.84
2019-04-26T11:00:31.495Z,15.92
2019-04-26T11:01:31.555Z,15.73
2019-04-26T11:03:24.575Z,15.72
2019-04-26T11:04:25.923Z,15.67
2019-04-26T11:06:17.588Z,15.70
2019-04-26T11:07:17.647Z,15.70
2019-04-26T11:09:10.653Z,15.83
2019-04-26T11:10:10.694Z,15.83
2019-04-26T11:12:03.702Z,15.79
2019-04-26T11:13:03.746Z,15.84
2019-04-26T11:14:57.105Z,15.90
2019-04-26T11:15:56.799Z,15.77
2019-04-26T11:17:50.133Z,15.91
2019-04-26T11:18:49.842Z,15.84
2019-04-26T11:20:45.615Z,15.73
2019-04-26T11:21:42.896Z,15.90
2019-04-26T11:23:35.906Z,15.64
2019-04-26T11:24:35.941Z,15.67
2019-04-26T11:26:31.047Z,15.64
2019-04-26T11:27:28.994Z,15.46
2019-04-26T11:29:24.962Z,15.58
2019-04-26T11:30:22.148Z,15.59
2019-04-26T11:32:15.030Z,15.59
2019-04-26T11:33:15.088Z,15.43
2019-04-26T11:35:08.100Z,15.42
2019-04-26T11:36:08.806Z,15.57
2019-04-26T11:38:01.230Z,15.58
2019-04-26T11:39:04.973Z,15.68
2019-04-26T11:41:05.750Z,15.61
2019-04-26T11:41:54.232Z,15.59
2019-04-26T11:43:49.038Z,15.68
2019-04-26T11:44:47.306Z,15.76
2019-04-26T11:46:44.952Z,15.97
2019-04-26T11:47:54.362Z,16.16
2019-04-26T11:49:33.326Z,16.36
2019-04-26T11:50:33.386Z,16.38
2019-04-26T11:52:26.398Z,16.51
2019-04-26T11:53:26.441Z,16.65
2019-04-26T11:55:19.429Z,16.90
2019-04-26T11:56:19.488Z,16.83
2019-04-26T11:58:12.514Z,16.76
2019-04-26T11:59:12.543Z,16.76
2019-04-26T12:01:05.540Z,17.04
2019-04-26T12:02:05.589Z,16.99
2019-04-26T12:03:59.520Z,17.26
2019-04-26T12:04:59.670Z,17.08
2019-04-26T12:06:51.620Z,17.29
2019-04-26T12:07:51.692Z,17.36
2019-04-26T12:09:44.702Z,17.36
2019-04-26T12:10:45.844Z,17.54
2019-04-26T12:12:37.737Z,17.41
2019-04-26T12:13:37.787Z,17.31
2019-04-26T12:15:30.818Z,17.23
2019-04-26T12:16:30.834Z,16.99
2019-04-26T12:18:23.930Z,16.97
2019-04-26T12:19:23.885Z,16.99
2019-04-26T12:21:16.900Z,17.30
2019-04-26T12:22:16.930Z,17.42
2019-04-26T12:24:09.922Z,17.45
2019-04-26T12:25:09.981Z,17.51
2019-04-26T12:27:03.056Z,17.41
2019-04-26T12:28:06.123Z,17.48
2019-04-26T12:29:56.022Z,17.33
2019-04-26T12:30:58.473Z,17.48
2019-04-26T12:32:50.169Z,17.30
2019-04-26T12:33:49.133Z,17.23
2019-04-26T12:35:42.130Z,17.29
2019-04-26T12:36:42.193Z,17.12
2019-04-26T12:38:35.198Z,17.05
2019-04-26T12:39:36.819Z,17.11
2019-04-26T12:41:39.901Z,17.20
2019-04-26T12:42:28.289Z,17.16
2019-04-26T12:44:21.290Z,17.19
2019-04-26T12:45:21.342Z,17.19
2019-04-26T12:47:14.369Z,17.19
2019-04-26T12:48:15.727Z,17.22
2019-04-26T12:50:07.387Z,17.15
2019-04-26T12:51:08.161Z,16.97
2019-04-26T12:53:00.475Z,16.90
2019-04-26T12:54:03.765Z,17.02
2019-04-26T12:55:58.030Z,17.11
2019-04-26T12:56:53.547Z,17.22
2019-04-26T12:58:49.996Z,17.30
2019-04-26T12:59:46.602Z,17.33
2019-04-26T13:01:42.650Z,17.42
2019-04-26T13:02:39.665Z,17.46
2019-04-26T13:04:36.243Z,17.46
2019-04-26T13:05:32.714Z,17.44
2019-04-26T13:07:25.728Z,17.30
2019-04-26T13:08:25.761Z,17.29
2019-04-26T13:10:18.757Z,17.57
2019-04-26T13:11:18.816Z,17.65
2019-04-26T13:13:11.828Z,17.56
2019-04-26T13:14:11.862Z,17.64
2019-04-26T13:16:04.865Z,17.64
2019-04-26T13:17:04.930Z,17.71
2019-04-26T13:18:57.938Z,17.95
2019-04-26T13:19:57.980Z,17.92
2019-04-26T13:21:50.997Z,17.90
2019-04-26T13:22:54.193Z,17.94
2019-04-26T13:24:44.027Z,18.18
2019-04-26T13:25:44.082Z,18.18
2019-04-26T13:27:37.110Z,17.97
2019-04-26T13:28:37.137Z,17.98
2019-04-26T13:30:32.918Z,18.03
2019-04-26T13:31:31.733Z,18.01
2019-04-26T13:33:27.287Z,17.92
2019-04-26T13:34:23.240Z,18.01
2019-04-26T13:36:16.230Z,17.95
2019-04-26T13:37:16.293Z,17.71
2019-04-26T13:39:09.304Z,17.92
2019-04-26T13:40:09.347Z,17.98
2019-04-26T13:42:07.693Z,17.68
2019-04-26T13:43:02.404Z,17.56
2019-04-26T13:44:55.416Z,17.82
2019-04-26T13:45:55.453Z,17.87
2019-04-26T13:47:48.464Z,17.92
2019-04-26T13:48:48.521Z,17.98
2019-04-26T13:50:41.521Z,18.18
2019-04-26T13:51:41.555Z,18.23
2019-04-26T13:53:34.540Z,18.33
2019-04-26T13:54:34.600Z,18.43
2019-04-26T13:56:27.610Z,18.10
2019-04-26T13:57:27.657Z,18.26
2019-04-26T13:59:20.661Z,18.29
2019-04-26T14:00:20.711Z,18.25
2019-04-26T14:02:13.763Z,18.37
2019-04-26T14:03:13.768Z,18.45
2019-04-26T14:05:06.762Z,18.47
2019-04-26T14:06:06.824Z,18.55
2019-04-26T14:07:59.841Z,18.59
2019-04-26T14:09:02.829Z,18.63
2019-04-26T14:10:52.892Z,18.70
2019-04-26T14:11:52.956Z,18.49
2019-04-26T14:13:45.977Z,18.41
2019-04-26T14:14:46.006Z,18.55
2019-04-26T14:16:38.993Z,18.63
2019-04-26T14:17:39.055Z,18.63
2019-04-26T14:19:32.065Z,18.60
2019-04-26T14:20:32.110Z,18.77
2019-04-26T14:22:25.145Z,18.80
2019-04-26T14:23:25.165Z,18.75
2019-04-26T14:25:18.164Z,18.95
2019-04-26T14:26:18.426Z,18.99
2019-04-26T14:28:11.237Z,19.08
2019-04-26T14:29:11.281Z,19.16
2019-04-26T14:31:04.297Z,19.30
2019-04-26T14:32:04.333Z,19.21
2019-04-26T14:33:57.334Z,19.31
2019-04-26T14:34:57.398Z,19.41
2019-04-26T14:36:50.414Z,19.29
2019-04-26T14:37:51.604Z,19.26
2019-04-26T14:40:44.496Z,19.26
2019-04-26T14:42:42.237Z,19.34
2019-04-26T14:43:40.843Z,19.14
2019-04-26T14:45:29.562Z,18.84
2019-04-26T14:46:29.620Z,18.77
2019-04-26T14:48:35.266Z,18.81
2019-04-26T14:49:23.348Z,18.81
2019-04-26T14:51:16.986Z,18.63
2019-04-26T14:52:15.743Z,18.71
2019-04-26T14:54:11.503Z,18.63
2019-04-26T14:55:08.789Z,18.70
2019-04-26T14:57:07.690Z,18.70
2019-04-26T14:58:02.071Z,18.77
2019-04-26T14:59:56.814Z,18.77
2019-04-26T15:00:55.841Z,18.78
2019-04-26T15:02:48.584Z,18.77
2019-04-26T15:03:51.526Z,18.74
2019-04-26T15:05:43.072Z,18.70
2019-04-26T15:06:42.402Z,18.66
2019-04-26T15:08:34.523Z,18.75
2019-04-26T15:09:36.510Z,18.83
2019-04-26T15:11:27.613Z,18.93
2019-04-26T15:12:27.646Z,18.75
2019-04-26T15:14:22.372Z,18.70
2019-04-26T15:15:20.696Z,18.60
2019-04-26T15:17:16.376Z,18.60
2019-04-26T15:18:13.747Z,18.56
2019-04-26T15:20:06.761Z,18.49
2019-04-26T15:21:06.822Z,18.50
2019-04-26T15:22:59.847Z,18.47
2019-04-26T15:24:00.403Z,18.52
2019-04-26T15:25:53.037Z,18.52
2019-04-26T15:26:52.942Z,18.44
2019-04-26T15:28:50.520Z,18.37
2019-04-26T15:29:45.989Z,18.20
2019-04-26T15:31:38.977Z,18.41
2019-04-26T15:32:39.041Z,18.38
2019-04-26T15:34:32.058Z,18.47
2019-04-26T15:35:35.617Z,18.50
2019-04-26T15:37:28.394Z,18.63
2019-04-26T15:38:25.144Z,18.70
2019-04-26T15:40:18.175Z,18.71
2019-04-26T15:41:18.210Z,18.78
2019-04-26T15:43:14.850Z,18.83
2019-04-26T15:44:11.960Z,18.88
2019-04-26T15:46:04.280Z,18.73
2019-04-26T15:47:05.843Z,18.86
2019-04-26T15:48:57.298Z,18.74
2019-04-26T15:49:57.363Z,18.81
2019-04-26T15:51:50.390Z,18.81
2019-04-26T15:52:50.424Z,18.78
2019-04-26T15:54:43.411Z,18.66
2019-04-26T15:55:43.645Z,18.66
2019-04-26T15:57:36.551Z,18.59
2019-04-26T15:58:38.661Z,18.53
2019-04-26T16:00:32.734Z,18.41
2019-04-26T16:01:29.598Z,18.45
2019-04-26T16:03:22.848Z,18.26
2019-04-26T16:04:23.893Z,18.22
2019-04-26T16:06:15.646Z,18.20
2019-04-26T16:07:26.970Z,18.15
2019-04-26T16:09:08.738Z,17.95
2019-04-26T16:10:08.776Z,17.85
2019-04-26T16:12:03.598Z,17.80
2019-04-26T16:13:16.224Z,17.68
2019-04-26T16:14:55.377Z,17.86
2019-04-26T16:15:55.377Z,17.80
2019-04-26T16:17:48.396Z,17.83
2019-04-26T16:18:49.981Z,17.72
2019-04-26T16:20:42.834Z,17.65
2019-04-26T16:21:42.539Z,17.65
2019-04-26T16:23:41.185Z,17.64
2019-04-26T16:24:34.668Z,17.52
2019-04-26T16:26:27.542Z,17.48
2019-04-26T16:27:30.899Z,17.56
2019-04-26T16:29:21.134Z,17.36
2019-04-26T16:30:21.156Z,17.41
2019-04-26T16:32:16.905Z,17.26
2019-04-26T16:33:14.204Z,17.30
2019-04-26T16:35:07.219Z,17.27
2019-04-26T16:36:07.261Z,17.26
2019-04-26T16:38:00.297Z,17.30
2019-04-26T16:39:00.309Z,17.22
2019-04-26T16:40:55.003Z,17.22
2019-04-26T16:41:53.379Z,17.26
2019-04-26T16:43:53.183Z,17.33
2019-04-26T16:44:46.431Z,17.30
2019-04-26T16:46:39.451Z,17.41
2019-04-26T16:47:45.248Z,17.38
2019-04-26T16:49:35.199Z,17.44
2019-04-26T16:50:37.198Z,17.45
2019-04-26T16:52:25.535Z,17.41
2019-04-26T16:53:43.653Z,17.42
2019-04-26T16:55:21.170Z,17.44
2019-04-26T16:56:25.979Z,17.51
2019-04-26T16:58:12.652Z,17.41
2019-04-26T16:59:14.190Z,17.39
2019-04-26T17:01:09.970Z,17.38
2019-04-26T17:02:04.749Z,17.36
2019-04-26T17:03:57.748Z,17.34
2019-04-26T17:05:03.589Z,17.24
2019-04-26T17:06:50.831Z,17.27
2019-04-26T17:07:53.753Z,17.27
2019-04-26T17:09:59.809Z,17.12
2019-04-26T17:10:43.922Z,17.11
2019-04-26T17:12:36.944Z,17.12
2019-04-26T17:13:48.392Z,17.14
2019-04-26T17:15:29.971Z,17.08
2019-04-26T17:16:34.729Z,16.94
2019-04-26T17:18:23.879Z,16.94
2019-04-26T17:19:23.092Z,17.09
2019-04-26T17:21:17.628Z,17.09
2019-04-26T17:22:16.139Z,17.08
2019-04-26T17:24:09.768Z,16.94
2019-04-26T17:25:09.185Z,17.02
2019-04-26T17:27:05.486Z,16.94
2019-04-26T17:28:03.396Z,16.99
2019-04-26T17:29:55.752Z,16.96
2019-04-26T17:30:55.785Z,16.96
2019-04-26T17:32:51.630Z,16.96
2019-04-26T17:33:48.833Z,16.89
2019-04-26T17:35:42.079Z,16.97
2019-04-26T17:36:41.881Z,16.97
2019-04-26T17:38:35.196Z,17.02
2019-04-26T17:39:34.944Z,17.11
2019-04-26T17:41:27.938Z,17.04
2019-04-26T17:42:29.748Z,17.08
2019-04-26T17:44:26.682Z,16.97
2019-04-26T17:45:21.288Z,17.02
2019-04-26T17:47:14.039Z,16.91
2019-04-26T17:48:14.298Z,16.87
2019-04-26T17:50:07.067Z,16.84
2019-04-26T17:51:11.824Z,16.94
2019-04-26T17:53:00.619Z,16.89
2019-04-26T17:54:21.155Z,16.84
2019-04-26T17:55:54.826Z,16.79
2019-04-26T17:56:53.245Z,16.79
2019-04-26T17:58:52.391Z,16.76
2019-04-26T17:59:48.942Z,16.83
2019-04-26T18:01:45.207Z,16.68
2019-04-26T18:02:43.435Z,16.71
2019-04-26T18:04:36.932Z,16.60
2019-04-26T18:05:41.987Z,16.61
2019-04-26T18:07:39.629Z,16.50
2019-04-26T18:08:40.653Z,16.50
2019-04-26T18:10:18.444Z,16.49
2019-04-26T18:11:22.408Z,16.51
2019-04-26T18:13:16.448Z,16.54
2019-04-26T18:14:21.181Z,16.49
2019-04-26T18:16:04.582Z,16.46
2019-04-26T18:17:04.672Z,16.35
2019-04-26T18:18:57.612Z,16.39
2019-04-26T18:20:00.598Z,16.33
2019-04-26T18:21:56.105Z,16.21
2019-04-26T18:22:50.741Z,16.24
2019-04-26T18:24:43.732Z,16.12
2019-04-26T18:25:45.140Z,16.21
2019-04-26T18:27:38.765Z,16.08
2019-04-26T18:28:36.833Z,16.08
2019-04-26T18:30:30.349Z,16.02
2019-04-26T18:31:30.377Z,15.95
2019-04-26T18:33:25.969Z,16.00
2019-04-26T18:34:23.427Z,15.94